sensor_id;sensor_type;location;lat;lon;timestamp;P1;durP1;ratioP1;P2;durP2;ratioP2
12120;SDS011;6124;59.460;17.908;2023-02-15T00:01:08;12.70;;;5.93;;
12120;SDS011;6124;59.460;17.908;2023-02-15T00:03:36;11.10;;;5.77;;
12120;SDS011;6124;59.460;17.908;2023-02-15T00:06:03;12.77;;;5.77;;
12120;SDS011;6124;59.460;17.908;2023-02-15T00:08:31;11.03;;;5.50;;
12120;SDS011;6124;59.460;17.908;2023-02-15T00:11:05;11.43;;;5.37;;
12120;SDS011;6124;59.460;17.908;2023-02-15T00:13:34;12.03;;;5.33;;
12120;SDS011;6124;59.460;17.908;2023-02-15T00:16:04;8.80;;;5.30;;
12120;SDS011;6124;59.460;17.908;2023-02-15T00:18:32;8.30;;;5.17;;
12120;SDS011;6124;59.460;17.908;2023-02-15T00:21:02;12.30;;;5.13;;
12120;SDS011;6124;59.460;17.908;2023-02-15T00:23:30;11.50;;;5.80;;
12120;SDS011;6124;59.460;17.908;2023-02-15T00:26:04;7.87;;;5.30;;
12120;SDS011;6124;59.460;17.908;2023-02-15T00:28:34;8.77;;;5.10;;
12120;SDS011;6124;59.460;17.908;2023-02-15T00:31:02;11.53;;;5.77;;
12120;SDS011;6124;59.460;17.908;2023-02-15T00:33:30;11.17;;;5.57;;
12120;SDS011;6124;59.460;17.908;2023-02-15T00:35:57;8.07;;;5.63;;
12120;SDS011;6124;59.460;17.908;2023-02-15T00:38:25;12.20;;;5.33;;
12120;SDS011;6124;59.460;17.908;2023-02-15T00:40:53;9.83;;;5.67;;
12120;SDS011;6124;59.460;17.908;2023-02-15T00:43:20;9.10;;;5.37;;
12120;SDS011;6124;59.460;17.908;2023-02-15T00:45:49;9.77;;;5.53;;
12120;SDS011;6124;59.460;17.908;2023-02-15T00:48:17;9.87;;;5.50;;
12120;SDS011;6124;59.460;17.908;2023-02-15T00:50:45;6.70;;;5.00;;
12120;SDS011;6124;59.460;17.908;2023-02-15T00:53:12;9.10;;;5.07;;
12120;SDS011;6124;59.460;17.908;2023-02-15T00:55:40;10.93;;;5.03;;
12120;SDS011;6124;59.460;17.908;2023-02-15T00:58:07;8.40;;;4.77;;
12120;SDS011;6124;59.460;17.908;2023-02-15T01:00:35;8.57;;;4.97;;
12120;SDS011;6124;59.460;17.908;2023-02-15T01:03:04;6.87;;;4.67;;
12120;SDS011;6124;59.460;17.908;2023-02-15T01:05:32;8.20;;;4.90;;
12120;SDS011;6124;59.460;17.908;2023-02-15T01:07:59;7.07;;;4.37;;
12120;SDS011;6124;59.460;17.908;2023-02-15T01:10:27;8.30;;;4.50;;
12120;SDS011;6124;59.460;17.908;2023-02-15T01:12:55;6.67;;;4.53;;
12120;SDS011;6124;59.460;17.908;2023-02-15T01:15:23;8.57;;;4.10;;
12120;SDS011;6124;59.460;17.908;2023-02-15T01:17:51;8.70;;;4.77;;
12120;SDS011;6124;59.460;17.908;2023-02-15T01:20:21;8.50;;;5.53;;
12120;SDS011;6124;59.460;17.908;2023-02-15T01:22:49;6.50;;;4.10;;
12120;SDS011;6124;59.460;17.908;2023-02-15T01:25:17;9.13;;;4.80;;
12120;SDS011;6124;59.460;17.908;2023-02-15T01:27:44;8.70;;;5.03;;
12120;SDS011;6124;59.460;17.908;2023-02-15T01:30:12;5.93;;;4.57;;
12120;SDS011;6124;59.460;17.908;2023-02-15T01:32:40;7.73;;;4.63;;
12120;SDS011;6124;59.460;17.908;2023-02-15T01:35:08;6.53;;;4.53;;
12120;SDS011;6124;59.460;17.908;2023-02-15T01:37:37;6.90;;;4.30;;
12120;SDS011;6124;59.460;17.908;2023-02-15T01:40:06;9.90;;;4.77;;
12120;SDS011;6124;59.460;17.908;2023-02-15T01:42:34;10.30;;;4.40;;
12120;SDS011;6124;59.460;17.908;2023-02-15T01:45:02;10.33;;;4.90;;
12120;SDS011;6124;59.460;17.908;2023-02-15T01:47:32;9.13;;;4.77;;
12120;SDS011;6124;59.460;17.908;2023-02-15T01:50:04;8.67;;;5.43;;
12120;SDS011;6124;59.460;17.908;2023-02-15T01:52:34;9.03;;;4.60;;
12120;SDS011;6124;59.460;17.908;2023-02-15T01:55:05;8.67;;;4.37;;
12120;SDS011;6124;59.460;17.908;2023-02-15T01:57:33;11.47;;;4.17;;
12120;SDS011;6124;59.460;17.908;2023-02-15T02:00:02;8.30;;;4.83;;
12120;SDS011;6124;59.460;17.908;2023-02-15T02:02:32;9.60;;;5.00;;
12120;SDS011;6124;59.460;17.908;2023-02-15T02:05:00;8.70;;;5.03;;
12120;SDS011;6124;59.460;17.908;2023-02-15T02:07:32;9.97;;;5.23;;
12120;SDS011;6124;59.460;17.908;2023-02-15T02:10:00;9.13;;;4.90;;
12120;SDS011;6124;59.460;17.908;2023-02-15T02:12:29;7.93;;;4.63;;
12120;SDS011;6124;59.460;17.908;2023-02-15T02:14:57;9.43;;;5.00;;
12120;SDS011;6124;59.460;17.908;2023-02-15T02:17:26;8.23;;;5.27;;
12120;SDS011;6124;59.460;17.908;2023-02-15T02:20:11;9.07;;;5.00;;
12120;SDS011;6124;59.460;17.908;2023-02-15T02:23:07;8.87;;;4.97;;
12120;SDS011;6124;59.460;17.908;2023-02-15T02:25:45;8.87;;;5.20;;
12120;SDS011;6124;59.460;17.908;2023-02-15T02:28:20;7.57;;;4.60;;
12120;SDS011;6124;59.460;17.908;2023-02-15T02:30:59;8.77;;;5.50;;
12120;SDS011;6124;59.460;17.908;2023-02-15T02:33:40;9.23;;;5.03;;
12120;SDS011;6124;59.460;17.908;2023-02-15T02:36:18;12.33;;;5.53;;
12120;SDS011;6124;59.460;17.908;2023-02-15T02:38:52;9.40;;;4.93;;
12120;SDS011;6124;59.460;17.908;2023-02-15T02:41:26;7.00;;;5.20;;
12120;SDS011;6124;59.460;17.908;2023-02-15T02:43:59;8.03;;;5.40;;
12120;SDS011;6124;59.460;17.908;2023-02-15T02:46:30;10.70;;;5.30;;
12120;SDS011;6124;59.460;17.908;2023-02-15T02:49:00;9.03;;;5.40;;
12120;SDS011;6124;59.460;17.908;2023-02-15T02:51:28;10.17;;;4.97;;
12120;SDS011;6124;59.460;17.908;2023-02-15T02:53:56;8.33;;;5.07;;
12120;SDS011;6124;59.460;17.908;2023-02-15T02:56:27;8.20;;;5.00;;
12120;SDS011;6124;59.460;17.908;2023-02-15T02:58:56;9.77;;;5.13;;
12120;SDS011;6124;59.460;17.908;2023-02-15T03:01:26;8.47;;;5.27;;
12120;SDS011;6124;59.460;17.908;2023-02-15T03:03:55;6.67;;;4.50;;
12120;SDS011;6124;59.460;17.908;2023-02-15T03:06:27;7.77;;;4.73;;
12120;SDS011;6124;59.460;17.908;2023-02-15T03:08:56;9.30;;;5.37;;
12120;SDS011;6124;59.460;17.908;2023-02-15T03:11:25;7.30;;;4.93;;
12120;SDS011;6124;59.460;17.908;2023-02-15T03:13:52;13.53;;;5.63;;
12120;SDS011;6124;59.460;17.908;2023-02-15T03:16:20;11.17;;;5.60;;
12120;SDS011;6124;59.460;17.908;2023-02-15T03:18:54;7.60;;;5.00;;
12120;SDS011;6124;59.460;17.908;2023-02-15T03:21:25;9.93;;;5.40;;
12120;SDS011;6124;59.460;17.908;2023-02-15T03:23:57;10.90;;;5.80;;
12120;SDS011;6124;59.460;17.908;2023-02-15T03:26:25;12.03;;;6.13;;
12120;SDS011;6124;59.460;17.908;2023-02-15T03:28:54;12.57;;;5.50;;
12120;SDS011;6124;59.460;17.908;2023-02-15T03:31:23;10.13;;;5.77;;
12120;SDS011;6124;59.460;17.908;2023-02-15T03:33:53;10.73;;;5.47;;
12120;SDS011;6124;59.460;17.908;2023-02-15T03:36:22;10.03;;;5.33;;
12120;SDS011;6124;59.460;17.908;2023-02-15T03:38:54;8.50;;;5.70;;
12120;SDS011;6124;59.460;17.908;2023-02-15T03:41:27;10.43;;;5.83;;
12120;SDS011;6124;59.460;17.908;2023-02-15T03:43:56;10.07;;;5.60;;
12120;SDS011;6124;59.460;17.908;2023-02-15T03:46:26;10.73;;;5.77;;
12120;SDS011;6124;59.460;17.908;2023-02-15T03:48:55;10.97;;;5.70;;
12120;SDS011;6124;59.460;17.908;2023-02-15T03:51:25;8.93;;;5.70;;
12120;SDS011;6124;59.460;17.908;2023-02-15T03:54:00;11.67;;;5.57;;
12120;SDS011;6124;59.460;17.908;2023-02-15T03:56:29;12.50;;;6.07;;
12120;SDS011;6124;59.460;17.908;2023-02-15T03:58:57;16.10;;;7.17;;
12120;SDS011;6124;59.460;17.908;2023-02-15T04:01:45;11.53;;;5.60;;
12120;SDS011;6124;59.460;17.908;2023-02-15T04:04:25;10.10;;;5.73;;
12120;SDS011;6124;59.460;17.908;2023-02-15T04:06:52;10.43;;;6.13;;
12120;SDS011;6124;59.460;17.908;2023-02-15T04:09:20;10.30;;;5.83;;
12120;SDS011;6124;59.460;17.908;2023-02-15T04:12:06;10.03;;;6.03;;
12120;SDS011;6124;59.460;17.908;2023-02-15T04:14:34;9.30;;;5.73;;
12120;SDS011;6124;59.460;17.908;2023-02-15T04:17:19;10.10;;;6.23;;
12120;SDS011;6124;59.460;17.908;2023-02-15T04:19:46;11.17;;;6.57;;
12120;SDS011;6124;59.460;17.908;2023-02-15T04:22:31;9.77;;;6.13;;
12120;SDS011;6124;59.460;17.908;2023-02-15T04:25:16;11.23;;;6.77;;
12120;SDS011;6124;59.460;17.908;2023-02-15T04:27:47;12.33;;;6.90;;
12120;SDS011;6124;59.460;17.908;2023-02-15T04:30:15;9.60;;;6.73;;
12120;SDS011;6124;59.460;17.908;2023-02-15T04:32:43;12.77;;;7.10;;
12120;SDS011;6124;59.460;17.908;2023-02-15T04:35:10;10.63;;;6.33;;
12120;SDS011;6124;59.460;17.908;2023-02-15T04:37:39;10.70;;;6.73;;
12120;SDS011;6124;59.460;17.908;2023-02-15T04:40:08;12.03;;;6.77;;
12120;SDS011;6124;59.460;17.908;2023-02-15T04:42:35;13.47;;;7.30;;
12120;SDS011;6124;59.460;17.908;2023-02-15T04:45:05;15.77;;;8.13;;
12120;SDS011;6124;59.460;17.908;2023-02-15T04:47:33;14.70;;;8.17;;
12120;SDS011;6124;59.460;17.908;2023-02-15T04:50:00;14.60;;;7.47;;
12120;SDS011;6124;59.460;17.908;2023-02-15T04:52:27;13.63;;;7.43;;
12120;SDS011;6124;59.460;17.908;2023-02-15T04:54:55;13.83;;;7.80;;
12120;SDS011;6124;59.460;17.908;2023-02-15T04:57:22;15.90;;;8.30;;
12120;SDS011;6124;59.460;17.908;2023-02-15T04:59:50;15.57;;;7.80;;
12120;SDS011;6124;59.460;17.908;2023-02-15T05:02:18;13.27;;;8.17;;
12120;SDS011;6124;59.460;17.908;2023-02-15T05:04:46;13.23;;;7.93;;
12120;SDS011;6124;59.460;17.908;2023-02-15T05:07:14;13.63;;;8.07;;
12120;SDS011;6124;59.460;17.908;2023-02-15T05:09:41;16.80;;;9.20;;
12120;SDS011;6124;59.460;17.908;2023-02-15T05:12:09;14.20;;;8.50;;
12120;SDS011;6124;59.460;17.908;2023-02-15T05:14:36;17.63;;;8.80;;
12120;SDS011;6124;59.460;17.908;2023-02-15T05:17:04;14.20;;;8.20;;
12120;SDS011;6124;59.460;17.908;2023-02-15T05:19:33;14.43;;;8.30;;
12120;SDS011;6124;59.460;17.908;2023-02-15T05:22:00;16.00;;;9.10;;
12120;SDS011;6124;59.460;17.908;2023-02-15T05:24:28;13.50;;;8.37;;
12120;SDS011;6124;59.460;17.908;2023-02-15T05:27:12;17.70;;;8.43;;
12120;SDS011;6124;59.460;17.908;2023-02-15T05:30:00;17.43;;;8.67;;
12120;SDS011;6124;59.460;17.908;2023-02-15T05:32:27;18.47;;;9.23;;
12120;SDS011;6124;59.460;17.908;2023-02-15T05:34:56;17.07;;;8.30;;
12120;SDS011;6124;59.460;17.908;2023-02-15T05:37:23;17.30;;;8.93;;
12120;SDS011;6124;59.460;17.908;2023-02-15T05:39:51;14.80;;;7.90;;
12120;SDS011;6124;59.460;17.908;2023-02-15T05:42:18;14.80;;;8.07;;
12120;SDS011;6124;59.460;17.908;2023-02-15T05:44:46;15.37;;;8.60;;
12120;SDS011;6124;59.460;17.908;2023-02-15T05:47:13;15.83;;;8.20;;
12120;SDS011;6124;59.460;17.908;2023-02-15T05:49:40;17.00;;;8.83;;
12120;SDS011;6124;59.460;17.908;2023-02-15T05:52:09;21.50;;;9.10;;
12120;SDS011;6124;59.460;17.908;2023-02-15T05:54:37;15.27;;;8.80;;
12120;SDS011;6124;59.460;17.908;2023-02-15T05:57:05;14.60;;;8.00;;
12120;SDS011;6124;59.460;17.908;2023-02-15T05:59:32;15.63;;;8.53;;
12120;SDS011;6124;59.460;17.908;2023-02-15T06:01:59;17.83;;;8.97;;
12120;SDS011;6124;59.460;17.908;2023-02-15T06:04:27;16.13;;;8.93;;
12120;SDS011;6124;59.460;17.908;2023-02-15T06:06:54;15.57;;;8.60;;
12120;SDS011;6124;59.460;17.908;2023-02-15T06:09:23;17.20;;;9.27;;
12120;SDS011;6124;59.460;17.908;2023-02-15T06:11:50;17.83;;;9.17;;
12120;SDS011;6124;59.460;17.908;2023-02-15T06:14:18;18.33;;;9.10;;
12120;SDS011;6124;59.460;17.908;2023-02-15T06:16:46;15.30;;;8.73;;
12120;SDS011;6124;59.460;17.908;2023-02-15T06:19:13;12.40;;;7.83;;
12120;SDS011;6124;59.460;17.908;2023-02-15T06:21:41;18.93;;;9.20;;
12120;SDS011;6124;59.460;17.908;2023-02-15T06:24:09;19.83;;;9.17;;
12120;SDS011;6124;59.460;17.908;2023-02-15T06:26:38;17.17;;;9.33;;
12120;SDS011;6124;59.460;17.908;2023-02-15T06:29:05;14.03;;;8.43;;
12120;SDS011;6124;59.460;17.908;2023-02-15T06:31:33;17.80;;;8.97;;
12120;SDS011;6124;59.460;17.908;2023-02-15T06:34:00;14.77;;;8.73;;
12120;SDS011;6124;59.460;17.908;2023-02-15T06:36:27;15.87;;;8.30;;
12120;SDS011;6124;59.460;17.908;2023-02-15T06:38:55;17.53;;;9.47;;
12120;SDS011;6124;59.460;17.908;2023-02-15T06:41:23;18.13;;;9.00;;
12120;SDS011;6124;59.460;17.908;2023-02-15T06:43:52;16.60;;;8.90;;
12120;SDS011;6124;59.460;17.908;2023-02-15T06:46:19;18.27;;;9.53;;
12120;SDS011;6124;59.460;17.908;2023-02-15T06:48:46;16.73;;;9.50;;
12120;SDS011;6124;59.460;17.908;2023-02-15T06:51:14;14.90;;;8.90;;
12120;SDS011;6124;59.460;17.908;2023-02-15T06:53:41;18.00;;;9.63;;
12120;SDS011;6124;59.460;17.908;2023-02-15T06:56:10;15.57;;;9.67;;
12120;SDS011;6124;59.460;17.908;2023-02-15T06:58:38;19.70;;;9.40;;
12120;SDS011;6124;59.460;17.908;2023-02-15T07:01:07;16.43;;;9.10;;
12120;SDS011;6124;59.460;17.908;2023-02-15T07:03:35;17.30;;;8.73;;
12120;SDS011;6124;59.460;17.908;2023-02-15T07:06:03;16.10;;;9.17;;
12120;SDS011;6124;59.460;17.908;2023-02-15T07:08:33;17.60;;;9.00;;
12120;SDS011;6124;59.460;17.908;2023-02-15T07:11:00;14.93;;;8.40;;
12120;SDS011;6124;59.460;17.908;2023-02-15T07:13:42;17.13;;;8.63;;
12120;SDS011;6124;59.460;17.908;2023-02-15T07:16:11;13.70;;;8.13;;
12120;SDS011;6124;59.460;17.908;2023-02-15T07:18:39;16.07;;;8.10;;
12120;SDS011;6124;59.460;17.908;2023-02-15T07:21:07;14.40;;;8.30;;
12120;SDS011;6124;59.460;17.908;2023-02-15T07:23:34;16.17;;;8.87;;
12120;SDS011;6124;59.460;17.908;2023-02-15T07:26:02;14.20;;;8.40;;
12120;SDS011;6124;59.460;17.908;2023-02-15T07:28:30;16.30;;;8.73;;
12120;SDS011;6124;59.460;17.908;2023-02-15T07:30:57;14.40;;;8.17;;
12120;SDS011;6124;59.460;17.908;2023-02-15T07:33:26;14.13;;;8.13;;
12120;SDS011;6124;59.460;17.908;2023-02-15T07:35:54;14.60;;;8.00;;
12120;SDS011;6124;59.460;17.908;2023-02-15T07:38:23;13.83;;;7.83;;
12120;SDS011;6124;59.460;17.908;2023-02-15T07:40:50;12.50;;;7.67;;
12120;SDS011;6124;59.460;17.908;2023-02-15T07:43:18;12.60;;;8.07;;
12120;SDS011;6124;59.460;17.908;2023-02-15T07:45:45;15.03;;;8.03;;
12120;SDS011;6124;59.460;17.908;2023-02-15T07:48:12;14.70;;;7.47;;
12120;SDS011;6124;59.460;17.908;2023-02-15T07:50:41;11.80;;;7.13;;
12120;SDS011;6124;59.460;17.908;2023-02-15T07:53:09;13.00;;;7.43;;
12120;SDS011;6124;59.460;17.908;2023-02-15T07:55:36;14.97;;;8.13;;
12120;SDS011;6124;59.460;17.908;2023-02-15T07:58:03;14.87;;;8.23;;
12120;SDS011;6124;59.460;17.908;2023-02-15T08:00:31;11.80;;;7.23;;
12120;SDS011;6124;59.460;17.908;2023-02-15T08:03:18;14.77;;;7.03;;
12120;SDS011;6124;59.460;17.908;2023-02-15T08:05:47;13.97;;;7.20;;
12120;SDS011;6124;59.460;17.908;2023-02-15T08:08:15;13.43;;;6.80;;
12120;SDS011;6124;59.460;17.908;2023-02-15T08:10:57;13.53;;;7.37;;
12120;SDS011;6124;59.460;17.908;2023-02-15T08:13:42;11.70;;;6.97;;
12120;SDS011;6124;59.460;17.908;2023-02-15T08:16:19;12.10;;;7.00;;
12120;SDS011;6124;59.460;17.908;2023-02-15T08:18:46;12.40;;;7.03;;
12120;SDS011;6124;59.460;17.908;2023-02-15T08:21:15;11.63;;;6.93;;
12120;SDS011;6124;59.460;17.908;2023-02-15T08:23:43;14.10;;;7.90;;
12120;SDS011;6124;59.460;17.908;2023-02-15T08:26:10;11.60;;;7.07;;
12120;SDS011;6124;59.460;17.908;2023-02-15T08:28:37;11.60;;;7.00;;
12120;SDS011;6124;59.460;17.908;2023-02-15T08:31:05;11.17;;;6.23;;
12120;SDS011;6124;59.460;17.908;2023-02-15T08:33:32;12.57;;;7.13;;
12120;SDS011;6124;59.460;17.908;2023-02-15T08:36:04;10.80;;;6.60;;
12120;SDS011;6124;59.460;17.908;2023-02-15T08:38:34;12.00;;;6.63;;
12120;SDS011;6124;59.460;17.908;2023-02-15T08:41:08;10.53;;;6.50;;
12120;SDS011;6124;59.460;17.908;2023-02-15T08:43:36;13.33;;;6.90;;
12120;SDS011;6124;59.460;17.908;2023-02-15T08:46:04;11.90;;;6.63;;
12120;SDS011;6124;59.460;17.908;2023-02-15T08:48:31;13.10;;;6.77;;
12120;SDS011;6124;59.460;17.908;2023-02-15T08:50:58;13.40;;;6.87;;
12120;SDS011;6124;59.460;17.908;2023-02-15T08:53:26;11.20;;;6.20;;
12120;SDS011;6124;59.460;17.908;2023-02-15T08:55:58;11.97;;;7.00;;
12120;SDS011;6124;59.460;17.908;2023-02-15T08:58:25;12.27;;;6.90;;
12120;SDS011;6124;59.460;17.908;2023-02-15T09:00:53;11.13;;;6.43;;
12120;SDS011;6124;59.460;17.908;2023-02-15T09:03:20;12.87;;;6.77;;
12120;SDS011;6124;59.460;17.908;2023-02-15T09:05:48;10.50;;;6.43;;
12120;SDS011;6124;59.460;17.908;2023-02-15T09:08:15;12.10;;;6.50;;
12120;SDS011;6124;59.460;17.908;2023-02-15T09:10:43;13.23;;;6.07;;
12120;SDS011;6124;59.460;17.908;2023-02-15T09:13:11;8.20;;;5.73;;
12120;SDS011;6124;59.460;17.908;2023-02-15T09:15:39;9.77;;;6.50;;
12120;SDS011;6124;59.460;17.908;2023-02-15T09:18:07;9.23;;;5.97;;
12120;SDS011;6124;59.460;17.908;2023-02-15T09:20:35;9.90;;;6.43;;
12120;SDS011;6124;59.460;17.908;2023-02-15T09:23:02;9.03;;;5.60;;
12120;SDS011;6124;59.460;17.908;2023-02-15T09:25:30;10.77;;;6.13;;
12120;SDS011;6124;59.460;17.908;2023-02-15T09:27:57;9.53;;;5.97;;
12120;SDS011;6124;59.460;17.908;2023-02-15T09:30:26;8.47;;;5.47;;
12120;SDS011;6124;59.460;17.908;2023-02-15T09:32:53;10.53;;;6.07;;
12120;SDS011;6124;59.460;17.908;2023-02-15T09:35:20;9.93;;;5.97;;
12120;SDS011;6124;59.460;17.908;2023-02-15T09:37:48;8.60;;;5.57;;
12120;SDS011;6124;59.460;17.908;2023-02-15T09:40:15;9.33;;;5.73;;
12120;SDS011;6124;59.460;17.908;2023-02-15T09:45:36;9.80;;;6.20;;
12120;SDS011;6124;59.460;17.908;2023-02-15T09:48:16;9.27;;;5.57;;
12120;SDS011;6124;59.460;17.908;2023-02-15T09:50:52;11.87;;;6.20;;
12120;SDS011;6124;59.460;17.908;2023-02-15T09:53:26;10.53;;;6.10;;
12120;SDS011;6124;59.460;17.908;2023-02-15T09:55:57;10.07;;;6.17;;
12120;SDS011;6124;59.460;17.908;2023-02-15T09:58:31;9.57;;;6.33;;
12120;SDS011;6124;59.460;17.908;2023-02-15T10:01:06;9.07;;;5.80;;
12120;SDS011;6124;59.460;17.908;2023-02-15T10:03:40;10.33;;;6.00;;
12120;SDS011;6124;59.460;17.908;2023-02-15T10:06:17;12.80;;;6.27;;
12120;SDS011;6124;59.460;17.908;2023-02-15T10:11:47;10.50;;;6.03;;
12120;SDS011;6124;59.460;17.908;2023-02-15T10:14:29;11.57;;;6.50;;
12120;SDS011;6124;59.460;17.908;2023-02-15T10:17:07;11.30;;;5.87;;
12120;SDS011;6124;59.460;17.908;2023-02-15T10:19:40;11.37;;;6.20;;
12120;SDS011;6124;59.460;17.908;2023-02-15T10:22:13;12.53;;;6.57;;
12120;SDS011;6124;59.460;17.908;2023-02-15T10:24:48;10.10;;;6.03;;
12120;SDS011;6124;59.460;17.908;2023-02-15T10:27:21;11.37;;;6.57;;
12120;SDS011;6124;59.460;17.908;2023-02-15T10:29:51;13.13;;;6.97;;
12120;SDS011;6124;59.460;17.908;2023-02-15T10:32:22;10.70;;;6.10;;
12120;SDS011;6124;59.460;17.908;2023-02-15T10:34:51;13.33;;;6.77;;
12120;SDS011;6124;59.460;17.908;2023-02-15T10:37:32;13.50;;;7.07;;
12120;SDS011;6124;59.460;17.908;2023-02-15T10:40:04;11.93;;;6.43;;
12120;SDS011;6124;59.460;17.908;2023-02-15T10:42:38;11.90;;;6.87;;
12120;SDS011;6124;59.460;17.908;2023-02-15T10:45:12;11.53;;;6.97;;
12120;SDS011;6124;59.460;17.908;2023-02-15T10:47:45;14.23;;;7.43;;
12120;SDS011;6124;59.460;17.908;2023-02-15T10:50:21;12.00;;;6.73;;
12120;SDS011;6124;59.460;17.908;2023-02-15T10:52:57;14.53;;;7.13;;
12120;SDS011;6124;59.460;17.908;2023-02-15T10:55:29;13.60;;;6.83;;
12120;SDS011;6124;59.460;17.908;2023-02-15T10:58:02;12.00;;;6.63;;
12120;SDS011;6124;59.460;17.908;2023-02-15T11:00:34;13.03;;;6.43;;
12120;SDS011;6124;59.460;17.908;2023-02-15T11:03:14;13.47;;;7.23;;
12120;SDS011;6124;59.460;17.908;2023-02-15T11:05:49;12.27;;;6.83;;
12120;SDS011;6124;59.460;17.908;2023-02-15T11:08:21;13.33;;;7.07;;
12120;SDS011;6124;59.460;17.908;2023-02-15T11:10:54;14.73;;;7.27;;
12120;SDS011;6124;59.460;17.908;2023-02-15T11:13:22;13.53;;;6.90;;
12120;SDS011;6124;59.460;17.908;2023-02-15T11:15:53;13.37;;;7.07;;
12120;SDS011;6124;59.460;17.908;2023-02-15T11:18:23;14.70;;;7.30;;
12120;SDS011;6124;59.460;17.908;2023-02-15T11:20:53;14.90;;;6.97;;
12120;SDS011;6124;59.460;17.908;2023-02-15T11:23:21;15.23;;;7.57;;
12120;SDS011;6124;59.460;17.908;2023-02-15T11:25:52;11.53;;;6.73;;
12120;SDS011;6124;59.460;17.908;2023-02-15T11:28:22;15.50;;;7.20;;
12120;SDS011;6124;59.460;17.908;2023-02-15T11:30:53;11.27;;;6.33;;
12120;SDS011;6124;59.460;17.908;2023-02-15T11:33:23;14.57;;;7.20;;
12120;SDS011;6124;59.460;17.908;2023-02-15T11:35:53;12.90;;;6.80;;
12120;SDS011;6124;59.460;17.908;2023-02-15T11:38:23;15.30;;;7.13;;
12120;SDS011;6124;59.460;17.908;2023-02-15T11:40:54;13.10;;;6.70;;
12120;SDS011;6124;59.460;17.908;2023-02-15T11:43:23;13.53;;;6.77;;
12120;SDS011;6124;59.460;17.908;2023-02-15T11:45:54;11.87;;;6.27;;
12120;SDS011;6124;59.460;17.908;2023-02-15T11:48:23;13.77;;;7.07;;
12120;SDS011;6124;59.460;17.908;2023-02-15T11:50:50;14.20;;;7.37;;
12120;SDS011;6124;59.460;17.908;2023-02-15T11:53:18;15.07;;;7.13;;
12120;SDS011;6124;59.460;17.908;2023-02-15T11:55:48;16.33;;;7.27;;
12120;SDS011;6124;59.460;17.908;2023-02-15T11:58:22;14.90;;;7.73;;
12120;SDS011;6124;59.460;17.908;2023-02-15T12:00:51;15.90;;;7.33;;
12120;SDS011;6124;59.460;17.908;2023-02-15T12:03:21;13.07;;;7.37;;
12120;SDS011;6124;59.460;17.908;2023-02-15T12:05:52;14.43;;;6.57;;
12120;SDS011;6124;59.460;17.908;2023-02-15T12:08:21;14.83;;;7.17;;
12120;SDS011;6124;59.460;17.908;2023-02-15T12:10:55;13.77;;;7.30;;
12120;SDS011;6124;59.460;17.908;2023-02-15T12:13:25;13.47;;;6.90;;
12120;SDS011;6124;59.460;17.908;2023-02-15T12:15:53;13.97;;;7.23;;
12120;SDS011;6124;59.460;17.908;2023-02-15T12:18:24;16.00;;;8.27;;
12120;SDS011;6124;59.460;17.908;2023-02-15T12:20:57;17.80;;;8.87;;
12120;SDS011;6124;59.460;17.908;2023-02-15T12:23:25;16.07;;;8.10;;
12120;SDS011;6124;59.460;17.908;2023-02-15T12:25:54;15.27;;;7.50;;
12120;SDS011;6124;59.460;17.908;2023-02-15T12:28:24;17.43;;;8.00;;
12120;SDS011;6124;59.460;17.908;2023-02-15T12:30:52;11.97;;;7.20;;
12120;SDS011;6124;59.460;17.908;2023-02-15T12:33:23;15.23;;;7.90;;
12120;SDS011;6124;59.460;17.908;2023-02-15T12:35:54;17.17;;;8.07;;
12120;SDS011;6124;59.460;17.908;2023-02-15T12:38:26;15.73;;;8.30;;
12120;SDS011;6124;59.460;17.908;2023-02-15T12:40:57;17.03;;;7.87;;
12120;SDS011;6124;59.460;17.908;2023-02-15T12:43:26;15.83;;;8.27;;
12120;SDS011;6124;59.460;17.908;2023-02-15T12:45:53;14.87;;;8.00;;
12120;SDS011;6124;59.460;17.908;2023-02-15T12:48:39;15.87;;;7.80;;
12120;SDS011;6124;59.460;17.908;2023-02-15T12:51:07;14.47;;;7.40;;
12120;SDS011;6124;59.460;17.908;2023-02-15T12:53:36;18.00;;;7.70;;
12120;SDS011;6124;59.460;17.908;2023-02-15T12:56:04;18.30;;;9.10;;
12120;SDS011;6124;59.460;17.908;2023-02-15T12:58:32;15.77;;;8.70;;
12120;SDS011;6124;59.460;17.908;2023-02-15T13:01:04;18.50;;;8.47;;
12120;SDS011;6124;59.460;17.908;2023-02-15T13:03:37;17.40;;;8.13;;
12120;SDS011;6124;59.460;17.908;2023-02-15T13:06:05;18.27;;;7.70;;
12120;SDS011;6124;59.460;17.908;2023-02-15T13:08:34;16.00;;;8.27;;
12120;SDS011;6124;59.460;17.908;2023-02-15T13:11:05;15.87;;;8.00;;
12120;SDS011;6124;59.460;17.908;2023-02-15T13:13:50;15.83;;;8.50;;
12120;SDS011;6124;59.460;17.908;2023-02-15T13:16:19;15.47;;;8.40;;
12120;SDS011;6124;59.460;17.908;2023-02-15T13:18:48;17.63;;;9.00;;
12120;SDS011;6124;59.460;17.908;2023-02-15T13:21:18;19.10;;;9.00;;
12120;SDS011;6124;59.460;17.908;2023-02-15T13:23:46;17.10;;;8.90;;
12120;SDS011;6124;59.460;17.908;2023-02-15T13:26:17;18.47;;;8.40;;
12120;SDS011;6124;59.460;17.908;2023-02-15T13:28:46;17.00;;;8.40;;
12120;SDS011;6124;59.460;17.908;2023-02-15T13:31:14;17.27;;;8.30;;
12120;SDS011;6124;59.460;17.908;2023-02-15T13:33:42;16.27;;;8.07;;
12120;SDS011;6124;59.460;17.908;2023-02-15T13:36:12;15.33;;;7.57;;
12120;SDS011;6124;59.460;17.908;2023-02-15T13:38:51;17.70;;;8.50;;
12120;SDS011;6124;59.460;17.908;2023-02-15T13:41:25;17.63;;;8.57;;
12120;SDS011;6124;59.460;17.908;2023-02-15T13:43:56;17.70;;;8.43;;
12120;SDS011;6124;59.460;17.908;2023-02-15T13:46:32;18.10;;;8.57;;
12120;SDS011;6124;59.460;17.908;2023-02-15T13:49:05;17.80;;;8.20;;
12120;SDS011;6124;59.460;17.908;2023-02-15T13:51:37;18.50;;;8.33;;
12120;SDS011;6124;59.460;17.908;2023-02-15T13:54:14;16.80;;;8.27;;
12120;SDS011;6124;59.460;17.908;2023-02-15T13:56:48;17.20;;;8.40;;
12120;SDS011;6124;59.460;17.908;2023-02-15T13:59:20;18.50;;;8.50;;
12120;SDS011;6124;59.460;17.908;2023-02-15T14:01:53;19.93;;;9.07;;
12120;SDS011;6124;59.460;17.908;2023-02-15T14:04:32;21.57;;;9.43;;
12120;SDS011;6124;59.460;17.908;2023-02-15T14:09:52;15.97;;;8.10;;
12120;SDS011;6124;59.460;17.908;2023-02-15T14:12:37;16.33;;;7.57;;
12120;SDS011;6124;59.460;17.908;2023-02-15T14:15:09;18.13;;;8.87;;
12120;SDS011;6124;59.460;17.908;2023-02-15T14:17:41;14.10;;;7.97;;
12120;SDS011;6124;59.460;17.908;2023-02-15T14:20:14;12.87;;;7.27;;
12120;SDS011;6124;59.460;17.908;2023-02-15T14:22:44;16.63;;;8.37;;
12120;SDS011;6124;59.460;17.908;2023-02-15T14:25:15;17.80;;;7.83;;
12120;SDS011;6124;59.460;17.908;2023-02-15T14:27:49;18.07;;;7.90;;
12120;SDS011;6124;59.460;17.908;2023-02-15T14:30:20;18.00;;;8.97;;
12120;SDS011;6124;59.460;17.908;2023-02-15T14:32:48;18.10;;;8.27;;
12120;SDS011;6124;59.460;17.908;2023-02-15T14:35:17;14.23;;;7.57;;
12120;SDS011;6124;59.460;17.908;2023-02-15T14:37:46;15.23;;;7.10;;
12120;SDS011;6124;59.460;17.908;2023-02-15T14:40:18;14.37;;;6.73;;
12120;SDS011;6124;59.460;17.908;2023-02-15T14:43:09;13.80;;;6.83;;
12120;SDS011;6124;59.460;17.908;2023-02-15T14:45:39;14.70;;;7.13;;
12120;SDS011;6124;59.460;17.908;2023-02-15T14:48:10;14.57;;;7.00;;
12120;SDS011;6124;59.460;17.908;2023-02-15T14:50:40;13.53;;;6.97;;
12120;SDS011;6124;59.460;17.908;2023-02-15T14:53:15;15.47;;;7.83;;
12120;SDS011;6124;59.460;17.908;2023-02-15T14:55:42;13.90;;;7.37;;
12120;SDS011;6124;59.460;17.908;2023-02-15T14:58:12;14.40;;;6.93;;
12120;SDS011;6124;59.460;17.908;2023-02-15T15:00:40;14.63;;;6.60;;
12120;SDS011;6124;59.460;17.908;2023-02-15T15:05:54;12.90;;;7.17;;
12120;SDS011;6124;59.460;17.908;2023-02-15T15:08:24;13.40;;;6.87;;